»·PEaware :: ACA792 KLAS-KDEN

ACA792 :: KLAS-KDEN

FLIGHT INFORMATION

Flight Status: Arrived
Operator:
Air Canada
More flights by this operator :: More flights under this callsign
Pilot: Jamie M. (26320)
Aircraft: Boeing 787-8 Dreamliner
(B788)
More flights by this aircraft type
Origin: KLAS McCarran Intl
United States
Destination: KDEN Denver Intl
United States
More flights between these airports :: More routes between these airports
Route: +TRALR9 DVC J146 HBU TELLR2
File this flight plan on PilotEdge
Remarks: RMK / SIMBRIEF
Altitude:
(Current/Filed)
41,000ft
Speed:
(Current/Filed)
481kts
Departed: 26-Sep-19 05:32 PM
Arrived: 26-Sep-19 06:52 PM
Distance/Time
Traveled:
545nm/1:19
Distance/Time
To Go:
Arrived

Flight Plot

Page will automatically refresh every two minutes.

Flight plan parsing failed; only flown route is shown


Map Options




Map Legend


Flown Route
Filed Route
Departure Airport
Arrival Airport
Navaid (VOR, NDB)
Fix

Horizontal Profiles

Position Reports

Time Latitude Longitude Heading Altitude Ground
Speed
26-Sep-19 17:01 36.089561 -115.154022 91 2194ft 0kts
26-Sep-19 17:02 36.089561 -115.154022 91 2194ft 0kts
26-Sep-19 17:03 36.089561 -115.154022 91 2194ft 0kts
26-Sep-19 17:04 36.089561 -115.154022 91 2194ft 0kts
26-Sep-19 17:05 36.089561 -115.154022 91 2194ft 0kts
26-Sep-19 17:06 36.089561 -115.154022 91 2194ft 0kts
26-Sep-19 17:07 36.089561 -115.154022 91 2194ft 0kts
26-Sep-19 17:08 36.089561 -115.154022 91 2194ft 0kts
26-Sep-19 17:09 36.089561 -115.154022 91 2194ft 0kts
26-Sep-19 17:10 36.089561 -115.154022 91 2194ft 0kts
26-Sep-19 17:11 36.089561 -115.154022 91 2194ft 0kts
26-Sep-19 17:12 36.089561 -115.154022 91 2194ft 0kts
26-Sep-19 17:13 36.089561 -115.154022 91 2194ft 0kts
26-Sep-19 17:14 36.089561 -115.154022 91 2194ft 0kts
26-Sep-19 17:15 36.089561 -115.154022 91 2194ft 0kts
26-Sep-19 17:16 36.089561 -115.154022 91 2194ft 0kts
26-Sep-19 17:17 36.089561 -115.154022 91 2194ft 0kts
26-Sep-19 17:18 36.089561 -115.154022 91 2194ft 0kts
26-Sep-19 17:19 36.089546 -115.154580 88 2194ft 2kts
26-Sep-19 17:20 36.089566 -115.155189 137 2194ft 2kts
26-Sep-19 17:21 36.090082 -115.155148 182 2194ft 2kts
26-Sep-19 17:22 36.090242 -115.155141 182 2194ft 0kts
26-Sep-19 17:23 36.090238 -115.155141 182 2194ft 0kts
26-Sep-19 17:24 36.090168 -115.154937 59 2194ft 1kts
26-Sep-19 17:25 36.090305 -115.154914 342 2194ft 0kts
26-Sep-19 17:26 36.092868 -115.154665 24 2194ft 17kts
26-Sep-19 17:27 36.097851 -115.152397 312 2194ft 13kts
26-Sep-19 17:28 36.097927 -115.152519 302 2194ft 0kts
26-Sep-19 17:29 36.097928 -115.152522 302 2194ft 0kts
26-Sep-19 17:30 36.097769 -115.154007 205 2194ft 0kts
26-Sep-19 17:31 36.068563 -115.170943 204 3296ft 195kts
26-Sep-19 17:32 36.014536 -115.210264 234 5818ft 261kts
26-Sep-19 17:33 35.975103 -115.290237 226 7133ft 286kts
26-Sep-19 17:34 35.902353 -115.282368 155 10576ft 308kts
26-Sep-19 17:35 35.850703 -115.193531 82 12540ft 374kts
26-Sep-19 17:36 35.866653 -115.066783 69 16015ft 386kts
26-Sep-19 17:37 35.918030 -114.950043 60 19099ft 396kts
26-Sep-19 17:38 35.969689 -114.826946 63 21859ft 414kts
26-Sep-19 17:39 36.020501 -114.696628 63 24295ft 430kts
26-Sep-19 17:40 36.072777 -114.561018 63 26558ft 444kts
26-Sep-19 17:41 36.126441 -114.421127 64 28582ft 456kts
26-Sep-19 17:42 36.180889 -114.277944 64 30494ft 465kts
26-Sep-19 17:43 36.231946 -114.129481 66 32353ft 472kts
26-Sep-19 17:44 36.280891 -113.981826 66 34880ft 459kts
26-Sep-19 17:45 36.329553 -113.834123 66 36355ft 463kts
26-Sep-19 17:46 36.378478 -113.684793 66 37616ft 468kts
26-Sep-19 17:47 36.427226 -113.535208 67 38734ft 471kts
26-Sep-19 17:48 36.476163 -113.384350 67 39699ft 473kts
26-Sep-19 17:49 36.525500 -113.231433 67 40511ft 477kts
26-Sep-19 17:50 36.574759 -113.077942 68 41075ft 480kts
26-Sep-19 17:51 36.624336 -112.922654 68 41109ft 486kts
26-Sep-19 17:52 36.674169 -112.765687 68 41131ft 489kts
26-Sep-19 17:53 36.724176 -112.607327 68 41131ft 491kts
26-Sep-19 17:54 36.773965 -112.448789 68 41130ft 493kts
26-Sep-19 17:55 36.823779 -112.289279 68 41119ft 494kts
26-Sep-19 17:56 36.873444 -112.129358 68 41101ft 494kts
26-Sep-19 17:57 36.922880 -111.969287 69 41084ft 494kts
26-Sep-19 17:58 36.972268 -111.808435 69 41036ft 496kts
26-Sep-19 17:59 37.021681 -111.646514 69 41007ft 497kts
26-Sep-19 18:00 37.070728 -111.484890 69 40999ft 497kts
26-Sep-19 18:01 37.119572 -111.323240 69 41009ft 497kts
26-Sep-19 18:02 37.168262 -111.161070 69 41015ft 497kts
26-Sep-19 18:03 37.216678 -110.998617 69 41020ft 497kts
26-Sep-19 18:04 37.264977 -110.835801 70 41032ft 498kts
26-Sep-19 18:05 37.313066 -110.672700 70 41039ft 499kts
26-Sep-19 18:06 37.361028 -110.509073 70 41046ft 499kts
26-Sep-19 18:07 37.408791 -110.345084 70 41070ft 500kts
26-Sep-19 18:08 37.456464 -110.180547 70 41090ft 500kts
26-Sep-19 18:09 37.503832 -110.016017 70 41109ft 499kts
26-Sep-19 18:10 37.550808 -109.851658 70 41126ft 500kts
26-Sep-19 18:11 37.597753 -109.686506 71 41144ft 501kts
26-Sep-19 18:12 37.644698 -109.520512 71 41154ft 501kts
26-Sep-19 18:13 37.691224 -109.354799 71 41143ft 502kts
26-Sep-19 18:14 37.737830 -109.187775 71 41131ft 504kts
26-Sep-19 18:15 37.784228 -109.020435 71 41121ft 505kts
26-Sep-19 18:16 37.835795 -108.855106 67 41103ft 506kts
26-Sep-19 18:17 37.892666 -108.691604 66 41105ft 509kts
26-Sep-19 18:18 37.949732 -108.527353 66 41107ft 510kts
26-Sep-19 18:19 38.006572 -108.362843 66 41150ft 510kts
26-Sep-19 18:20 38.063250 -108.197862 67 41184ft 511kts
26-Sep-19 18:21 38.119796 -108.032314 67 41220ft 511kts
26-Sep-19 18:22 38.176040 -107.866737 67 41218ft 511kts
26-Sep-19 18:23 38.232142 -107.700718 67 41185ft 511kts
26-Sep-19 18:24 38.288051 -107.534265 67 41155ft 511kts
26-Sep-19 18:25 38.343601 -107.367840 67 40131ft 508kts
26-Sep-19 18:26 38.398240 -107.203245 67 38032ft 502kts
26-Sep-19 18:27 38.456792 -107.041946 53 35947ft 499kts
26-Sep-19 18:28 38.549045 -106.909533 45 34031ft 503kts
26-Sep-19 18:29 38.645244 -106.778224 46 32064ft 508kts
26-Sep-19 18:30 38.740747 -106.646610 46 30112ft 500kts
26-Sep-19 18:31 38.834119 -106.517441 46 28013ft 488kts
26-Sep-19 18:32 38.924778 -106.391363 46 26098ft 475kts
26-Sep-19 18:33 39.013190 -106.267953 46 24297ft 462kts
26-Sep-19 18:34 39.096397 -106.143658 53 22140ft 453kts
26-Sep-19 18:35 39.162900 -106.010363 58 21263ft 439kts
26-Sep-19 18:36 39.223315 -105.874183 59 20816ft 436kts
26-Sep-19 18:37 39.282968 -105.738475 59 20380ft 432kts
26-Sep-19 18:38 39.340294 -105.607594 59 19750ft 399kts
26-Sep-19 18:39 39.389614 -105.484246 76 18263ft 379kts
26-Sep-19 18:40 39.400379 -105.355515 86 17318ft 352kts
26-Sep-19 18:41 39.406342 -105.228485 86 16387ft 363kts
26-Sep-19 18:42 39.412611 -105.089717 86 14680ft 402kts
26-Sep-19 18:44 39.419492 -104.944867 84 12963ft 401kts
26-Sep-19 18:45 39.437427 -104.805098 59 11117ft 388kts
26-Sep-19 18:46 39.516190 -104.735915 19 9984ft 315kts
26-Sep-19 18:47 39.595176 -104.702072 15 8968ft 279kts
26-Sep-19 18:48 39.666084 -104.673332 16 8027ft 260kts
26-Sep-19 18:49 39.728515 -104.642278 16 7924ft 204kts
26-Sep-19 18:50 39.781385 -104.642664 353 6478ft 179kts
26-Sep-19 18:51 39.829121 -104.641682 355 5532ft 165kts
26-Sep-19 18:52 39.852149 -104.642298 332 5444ft 16kts
26-Sep-19 18:53 39.853128 -104.643022 330 5444ft 0kts
26-Sep-19 18:54 39.855359 -104.643491 0 5444ft 16kts
26-Sep-19 18:55 39.859979 -104.645196 331 5444ft 18kts
26-Sep-19 18:56 39.864653 -104.648634 315 5444ft 13kts
26-Sep-19 18:57 39.864893 -104.653870 271 5444ft 16kts
26-Sep-19 18:58 39.864932 -104.660428 270 5444ft 19kts
26-Sep-19 18:59 39.864658 -104.666360 268 5444ft 14kts
26-Sep-19 19:00 39.864702 -104.670157 268 5444ft 0kts
26-Sep-19 19:01 39.864738 -104.673456 256 5444ft 11kts
26-Sep-19 19:02 39.863761 -104.674676 181 5444ft 5kts
26-Sep-19 19:03 39.863589 -104.674689 180 5444ft 0kts
26-Sep-19 19:03 39.863589 -104.674689 180 5444ft 0kts

Navigation Log

Ident Type
Flight plan parsing failed, navigation log unavailable